createdAt,value
2022-11-14T00:04:54.479Z,1.40
2022-11-14T00:09:56.346Z,1.40
2022-11-14T00:14:58.305Z,1.30
2022-11-14T00:20:00.122Z,1.30
2022-11-14T00:25:02.078Z,1.30
2022-11-14T00:30:04.250Z,1.20
2022-11-14T00:35:06.731Z,1.20
2022-11-14T00:40:08.981Z,1.10
2022-11-14T00:45:11.379Z,1.10
2022-11-14T00:50:13.334Z,0.90
2022-11-14T00:55:15.244Z,1.00
2022-11-14T01:00:17.216Z,0.90
2022-11-14T01:05:19.006Z,1.00
2022-11-14T01:10:21.519Z,0.90
2022-11-14T01:15:23.330Z,1.10
2022-11-14T01:20:25.410Z,1.20
2022-11-14T01:25:27.188Z,1.00
2022-11-14T01:30:29.027Z,1.00
2022-11-14T01:35:32.919Z,1.00
2022-11-14T01:40:35.088Z,1.00
2022-11-14T01:45:46.613Z,1.10
2022-11-14T01:50:54.459Z,1.10
2022-11-14T01:56:01.207Z,1.10
2022-11-14T02:01:03.399Z,1.20
2022-11-14T02:06:07.916Z,1.20
2022-11-14T02:11:13.559Z,1.20
2022-11-14T02:16:15.644Z,1.10
2022-11-14T02:21:17.618Z,1.20
2022-11-14T02:26:20.915Z,1.20
2022-11-14T02:31:22.870Z,1.20
2022-11-14T02:36:25.113Z,1.10
2022-11-14T02:41:26.888Z,1.20
2022-11-14T02:46:28.801Z,1.20
2022-11-14T02:51:30.593Z,1.30
2022-11-14T02:56:32.348Z,1.20
2022-11-14T03:01:34.153Z,1.20
2022-11-14T03:06:35.925Z,1.10
2022-11-14T03:11:39.073Z,1.10
2022-11-14T03:16:40.902Z,1.10
2022-11-14T03:21:42.808Z,1.00
2022-11-14T03:26:44.761Z,1.00
2022-11-14T03:31:46.670Z,1.00
2022-11-14T03:36:48.713Z,1.00
2022-11-14T03:41:50.589Z,1.10
2022-11-14T03:46:52.749Z,1.10
2022-11-14T03:51:54.502Z,1.20
2022-11-14T03:56:56.390Z,1.20
2022-11-14T04:01:58.257Z,1.10
2022-11-14T04:07:00.229Z,1.10
2022-11-14T04:12:02.190Z,0.90
2022-11-14T04:17:04.062Z,0.80
2022-11-14T04:22:06.327Z,0.80
2022-11-14T04:27:08.185Z,0.70
2022-11-14T04:32:10.018Z,0.70
2022-11-14T04:37:11.832Z,0.70
2022-11-14T04:42:14.066Z,0.90
2022-11-14T04:47:15.879Z,0.90
2022-11-14T04:52:17.665Z,0.90
2022-11-14T04:57:19.528Z,0.90
2022-11-14T05:02:21.471Z,0.80
2022-11-14T05:07:23.410Z,0.80
2022-11-14T05:12:25.335Z,0.80
2022-11-14T05:17:27.998Z,0.80
2022-11-14T05:22:29.870Z,0.90
2022-11-14T05:27:31.646Z,1.00
2022-11-14T05:32:33.506Z,1.00
2022-11-14T05:37:35.984Z,1.00
2022-11-14T05:42:37.907Z,0.90
2022-11-14T05:47:39.785Z,0.80
2022-11-14T05:52:41.760Z,0.80
2022-11-14T05:57:43.749Z,0.70
2022-11-14T06:02:46.227Z,0.80
2022-11-14T06:07:48.133Z,0.90
2022-11-14T06:12:50.267Z,0.90
2022-11-14T06:17:55.471Z,0.90
2022-11-14T06:22:57.446Z,0.90
2022-11-14T06:27:59.539Z,1.20
2022-11-14T06:33:01.581Z,1.20
2022-11-14T06:38:03.389Z,1.10
2022-11-14T06:43:05.143Z,0.80
2022-11-14T06:48:07.113Z,0.90
2022-11-14T06:53:08.921Z,0.90
2022-11-14T06:58:10.728Z,1.20
2022-11-14T07:03:12.638Z,1.40
2022-11-14T07:08:20.688Z,1.30
2022-11-14T07:13:22.945Z,1.40
2022-11-14T07:18:24.812Z,1.50
2022-11-14T07:23:27.330Z,1.60
2022-11-14T07:28:30.049Z,1.50
2022-11-14T07:33:32.684Z,1.50
2022-11-14T07:38:36.069Z,1.60
2022-11-14T07:43:38.018Z,1.60
2022-11-14T07:48:40.230Z,1.60
2022-11-14T07:53:42.274Z,1.70
2022-11-14T07:58:44.031Z,1.50
2022-11-14T08:03:46.488Z,1.60
2022-11-14T08:08:48.359Z,1.50
2022-11-14T08:13:50.168Z,1.70
2022-11-14T08:18:52.077Z,1.90
2022-11-14T08:23:53.927Z,1.90
2022-11-14T08:28:55.855Z,1.90
2022-11-14T08:33:57.800Z,2.10
2022-11-14T08:39:01.978Z,2.00
2022-11-14T08:44:04.195Z,1.90
2022-11-14T08:49:06.126Z,2.00
2022-11-14T08:54:07.994Z,2.10
2022-11-14T08:59:09.737Z,1.90
2022-11-14T09:04:11.686Z,2.20
2022-11-14T09:09:13.506Z,2.10
2022-11-14T09:14:15.285Z,1.80
2022-11-14T09:19:17.179Z,2.00
2022-11-14T09:24:18.988Z,2.40
2022-11-14T09:29:20.831Z,2.30
2022-11-14T09:34:22.631Z,2.20
2022-11-14T09:39:24.417Z,2.30
2022-11-14T09:44:48.693Z,2.30
2022-11-14T09:49:53.554Z,2.10
2022-11-14T09:55:18.639Z,2.20
2022-11-14T10:00:26.314Z,2.40
2022-11-14T10:05:36.966Z,2.50
2022-11-14T10:11:04.391Z,2.40
2022-11-14T10:16:43.417Z,2.30
2022-11-14T10:21:50.746Z,2.50
2022-11-14T10:27:02.389Z,2.70
2022-11-14T10:32:25.483Z,2.50
2022-11-14T10:37:30.195Z,2.60
2022-11-14T10:42:39.456Z,2.70
2022-11-14T10:47:48.606Z,2.70
2022-11-14T10:52:56.213Z,2.70
2022-11-14T10:57:58.191Z,2.70
2022-11-14T11:03:00.079Z,3.00
2022-11-14T11:08:41.897Z,2.80
2022-11-14T11:13:53.215Z,2.80
2022-11-14T11:19:24.361Z,2.80
2022-11-14T11:24:33.318Z,2.80
2022-11-14T11:29:35.137Z,2.70
2022-11-14T11:34:36.993Z,2.70
2022-11-14T11:39:45.435Z,2.80
2022-11-14T11:44:53.913Z,2.80
2022-11-14T11:49:56.937Z,3.00
2022-11-14T11:55:05.187Z,3.20
2022-11-14T12:00:21.867Z,3.40
2022-11-14T12:05:41.719Z,3.20
2022-11-14T12:10:45.858Z,3.00
2022-11-14T12:15:59.626Z,3.10
2022-11-14T12:21:36.538Z,3.00
2022-11-14T12:26:44.894Z,3.20
2022-11-14T12:31:47.951Z,3.40
2022-11-14T12:36:50.011Z,3.40
2022-11-14T12:42:04.311Z,3.40
2022-11-14T12:47:06.023Z,3.40
2022-11-14T12:52:39.561Z,3.50
2022-11-14T12:57:50.150Z,3.60
2022-11-14T13:03:08.424Z,3.60
2022-11-14T13:08:27.747Z,3.60
2022-11-14T13:13:48.770Z,3.60
2022-11-14T13:19:13.819Z,3.40
2022-11-14T13:24:19.032Z,3.50
2022-11-14T13:29:39.125Z,3.40
2022-11-14T13:34:44.084Z,3.30
2022-11-14T13:39:51.950Z,3.20
2022-11-14T13:44:53.668Z,3.20
2022-11-14T13:50:01.279Z,3.20
2022-11-14T13:55:04.330Z,3.30
2022-11-14T14:00:07.137Z,3.30
2022-11-14T14:05:25.999Z,3.30
2022-11-14T14:10:27.751Z,3.20
2022-11-14T14:15:56.131Z,3.00
2022-11-14T14:21:06.879Z,2.90
2022-11-14T14:26:26.686Z,2.90
2022-11-14T14:31:38.024Z,2.90
2022-11-14T14:36:50.414Z,2.90
2022-11-14T14:41:55.415Z,3.10
2022-11-14T14:46:57.676Z,3.00
2022-11-14T14:51:59.494Z,3.00
2022-11-14T14:57:02.724Z,3.00
2022-11-14T15:02:04.554Z,3.10
2022-11-14T15:07:17.519Z,2.90
2022-11-14T15:12:19.872Z,3.10
2022-11-14T15:17:23.023Z,3.00
2022-11-14T15:22:29.013Z,3.00
2022-11-14T15:27:32.781Z,2.90
2022-11-14T15:32:34.602Z,3.00
2022-11-14T15:37:36.546Z,3.00
2022-11-14T15:42:38.344Z,2.90
2022-11-14T15:47:40.643Z,3.00
2022-11-14T15:53:30.656Z,3.00
2022-11-14T15:58:33.061Z,3.10
2022-11-14T16:03:35.269Z,3.00
2022-11-14T16:08:37.048Z,3.00
2022-11-14T16:13:39.190Z,3.00
2022-11-14T16:18:41.070Z,3.20
2022-11-14T16:23:42.917Z,3.20
2022-11-14T16:28:44.688Z,3.20
2022-11-14T16:33:46.699Z,3.10
2022-11-14T16:38:52.311Z,3.20
2022-11-14T16:43:56.307Z,3.30
2022-11-14T16:48:58.302Z,3.30
2022-11-14T16:54:00.122Z,3.30
2022-11-14T16:59:02.127Z,3.40
2022-11-14T17:04:04.478Z,3.50
2022-11-14T17:09:06.395Z,3.40
2022-11-14T17:14:08.406Z,3.30
2022-11-14T17:19:10.287Z,3.30
2022-11-14T17:24:12.232Z,3.30
2022-11-14T17:29:14.161Z,3.30
2022-11-14T17:34:15.923Z,3.40
2022-11-14T17:39:17.705Z,3.30
2022-11-14T17:44:19.461Z,3.30
2022-11-14T17:49:21.225Z,3.30
2022-11-14T17:54:23.014Z,3.30
2022-11-14T17:59:24.887Z,3.40
2022-11-14T18:04:26.821Z,3.30
2022-11-14T18:09:29.619Z,3.10
2022-11-14T18:14:31.414Z,3.20
2022-11-14T18:19:33.319Z,3.10
2022-11-14T18:24:35.180Z,3.10
2022-11-14T18:29:37.090Z,3.10
2022-11-14T18:34:40.744Z,3.10
2022-11-14T18:39:42.499Z,3.10
2022-11-14T18:44:44.450Z,3.20
2022-11-14T18:49:46.341Z,3.20
2022-11-14T18:54:48.169Z,3.30
2022-11-14T18:59:49.977Z,3.30
2022-11-14T19:04:51.969Z,3.30
2022-11-14T19:09:53.950Z,3.30
2022-11-14T19:14:56.669Z,3.30
2022-11-14T19:19:58.666Z,3.20
2022-11-14T19:25:00.447Z,3.20
2022-11-14T19:30:02.657Z,3.20
2022-11-14T19:35:04.675Z,3.20
2022-11-14T19:40:07.197Z,3.30
2022-11-14T19:45:09.343Z,3.30
2022-11-14T19:50:11.125Z,3.30
2022-11-14T19:55:13.326Z,3.30
2022-11-14T20:00:15.820Z,3.30
2022-11-14T20:05:18.327Z,3.20
2022-11-14T20:10:20.184Z,3.20
2022-11-14T20:15:22.357Z,3.20
2022-11-14T20:20:24.185Z,3.20
2022-11-14T20:25:26.038Z,3.20
2022-11-14T20:30:28.309Z,3.20
2022-11-14T20:35:30.018Z,3.20
2022-11-14T20:40:32.703Z,3.20
2022-11-14T20:45:34.631Z,3.20
2022-11-14T20:50:36.529Z,3.30
2022-11-14T20:55:38.295Z,3.30
2022-11-14T21:00:40.033Z,3.20
2022-11-14T21:05:42.461Z,3.40
2022-11-14T21:10:47.018Z,3.30
2022-11-14T21:15:48.761Z,3.30
2022-11-14T21:21:02.177Z,3.30
2022-11-14T21:26:11.792Z,3.30
2022-11-14T21:31:17.809Z,3.30
2022-11-14T21:36:43.959Z,3.30
2022-11-14T21:41:42.566Z,3.30
2022-11-14T21:46:48.800Z,3.30
2022-11-14T21:51:50.980Z,3.30
2022-11-14T21:56:52.768Z,3.30
2022-11-14T22:02:13.376Z,3.30
2022-11-14T22:07:15.721Z,3.40
2022-11-14T22:12:17.510Z,3.40
2022-11-14T22:17:19.286Z,3.30
2022-11-14T22:22:21.151Z,3.40
2022-11-14T22:27:22.893Z,3.40
2022-11-14T22:32:24.714Z,3.40
2022-11-14T22:37:26.431Z,3.40
2022-11-14T22:42:28.227Z,3.40
2022-11-14T22:47:30.358Z,3.40
2022-11-14T22:52:32.129Z,3.40
2022-11-14T22:57:34.012Z,3.50
2022-11-14T23:02:36.057Z,3.50
2022-11-14T23:07:38.003Z,3.40
2022-11-14T23:12:39.968Z,3.50
2022-11-14T23:17:41.841Z,3.50
2022-11-14T23:22:43.639Z,3.50
2022-11-14T23:27:45.399Z,3.50
2022-11-14T23:32:47.395Z,3.50
2022-11-14T23:37:49.139Z,3.50
2022-11-14T23:42:50.998Z,3.60
2022-11-14T23:47:52.763Z,3.60
2022-11-14T23:52:54.529Z,3.60
2022-11-14T23:57:56.456Z,3.60
